^^
Station Historical Data
Daily Summary for October 22, 2017 Units:  Metric    English   Both
« Previous Day
Next Day »
Daily Weekly Monthly Yearly Custom
  High: Low: Average:
Temperature: 34.6 °C 21.1 °C 27.3 °C
Dew Point: 6.8 °C -10.6 °C 0.4 °C
Humidity: 38% 5% 22%
Wind Speed: 25.9km/h 0km/h 11.7km/h
Wind Gust: 29km/h - -
Wind- - South
Pressure: 1010 hPa 1007 hPa -
Precipitation: 0 mm    
Historical Graphs
 
 
Tabular Data for October 22, 2017
Time Temperature Dew Point Pressure Wind Wind Speed Wind Gust Humidity Rainfall Rate (Hourly) solar Conditions
16:51 34.6 °C -8.2 °C 1007.3 hPa Calm     6% 0 mm 436.0 W/m2
17:11 34.6 °C -10.5 °C 1007.3 hPa East 11.1 km/h 11.3 km/h 5% 0 mm 362.0 W/m2
17:28 34.1 °C -8.6 °C 1007.3 hPa East 11.1 km/h 12.9 km/h 6% 0 mm 294.0 W/m2
17:39 34.3 °C -8.4 °C 1007.3 hPa Calm     6% 0 mm 257.0 W/m2
17:50 34.3 °C -8.4 °C 1007.3 hPa Calm     6% 0 mm 216.0 W/m2
18:01 34.5 °C -10.6 °C 1007.3 hPa Calm     5% 0 mm 167.0 W/m2
18:33 33.9 °C -8.7 °C 1007 hPa Calm     6% 0 mm 53.0 W/m2
19:03 32.7 °C -9.6 °C 1007 hPa Calm     6% 0 mm 5.0 W/m2
19:12 32 °C -10.1 °C 1007 hPa Calm     6% 0 mm 0.0 W/m2
19:23 31.3 °C -8.6 °C 1007 hPa Calm     7% 0 mm 0.0 W/m2
19:33 31.2 °C -7 °C 1007 hPa East 9.7 km/h 16.1 km/h 8% 0 mm 0.0 W/m2
19:44 31.2 °C -7 °C 1007 hPa East 13 km/h 27.4 km/h 8% 0 mm 0.0 W/m2
19:59 30.6 °C -7.4 °C 1007.3 hPa ESE 16.3 km/h 19.3 km/h 8% 0 mm 0.0 W/m2
20:10 30.1 °C -2.4 °C 1007.7 hPa SE 16.3 km/h 19.3 km/h 12% 0 mm 0.0 W/m2
20:17 29.4 °C 1.8 °C 1007.7 hPa SSE 13 km/h 24.1 km/h 17% 0 mm 0.0 W/m2
20:28 28.2 °C 3.8 °C 1008 hPa South 19.5 km/h 27.4 km/h 21% 0 mm 0.0 W/m2
20:48 27 °C 4.1 °C 1008.4 hPa SSW 16.3 km/h 24.1 km/h 23% 0 mm 0.0 W/m2
20:58 26.6 °C 4.4 °C 1008.4 hPa SSW 17.7 km/h 25.7 km/h 24% 0 mm 0.0 W/m2
21:07 26.1 °C 4.5 °C 1008.4 hPa SSW 17.7 km/h 24.1 km/h 25% 0 mm 0.0 W/m2
21:19 25.8 °C 4.8 °C 1008.7 hPa SSW 17.7 km/h 24.1 km/h 26% 0 mm 0.0 W/m2
21:33 25.3 °C 5 °C 1008.7 hPa SSW 24.1 km/h 24.1 km/h 27% 0 mm 0.0 W/m2
21:42 25 °C 4.7 °C 1009 hPa SSW 19.5 km/h 22.5 km/h 27% 0 mm 0.0 W/m2
21:54 24.7 °C 5 °C 1009 hPa SSW 13 km/h 19.3 km/h 28% 0 mm 0.0 W/m2
22:04 24.4 °C 5.7 °C 1009 hPa SSW 16.3 km/h 24.1 km/h 30% 0 mm 0.0 W/m2
22:15 24.1 °C 5.9 °C 1009 hPa SSW 19.5 km/h 20.9 km/h 31% 0 mm 0.0 W/m2
22:29 23.7 °C 6 °C 1009 hPa SSW 25.9 km/h 27.4 km/h 32% 0 mm 0.0 W/m2
22:38 23.4 °C 6.2 °C 1009 hPa SSW 20.9 km/h 29 km/h 33% 0 mm 0.0 W/m2
22:47 23.1 °C 6.4 °C 1009 hPa SSW 19.5 km/h 25.7 km/h 34% 0 mm 0.0 W/m2
22:55 22.8 °C 6.5 °C 1009.4 hPa SSW 17.7 km/h 22.5 km/h 35% 0 mm 0.0 W/m2
23:05 22.6 °C 6.4 °C 1009.4 hPa SSW 11.1 km/h 16.1 km/h 35% 0 mm 0.0 W/m2
23:15 22.3 °C 6.5 °C 1009.7 hPa SSW 14.3 km/h 16.1 km/h 36% 0 mm 0.0 W/m2
23:20 22.2 °C 6.4 °C 1009.7 hPa SSW 11.1 km/h 14.5 km/h 36% 0 mm 0.0 W/m2
23:26 22.2 °C 6.8 °C 1009.7 hPa SSW 11.1 km/h 14.5 km/h 37% 0 mm 0.0 W/m2
23:31 22.1 °C 6.3 °C 1010 hPa SSW 11.1 km/h 11.3 km/h 36% 0 mm 0.0 W/m2
23:40 21.7 °C 6.4 °C 1010 hPa SSW 4.7 km/h 9.7 km/h 37% 0 mm 0.0 W/m2
23:45 21.4 °C 6.1 °C 1010 hPa SSW 7.9 km/h 9.7 km/h 37% 0 mm 0.0 W/m2
23:50 21.2 °C 6.3 °C 1010 hPa SSW 7.9 km/h 9.7 km/h 38% 0 mm 0.0 W/m2
23:56 21.1 °C 6.2 °C 1010 hPa SSW 9.7 km/h 11.3 km/h 38% 0 mm 0.0 W/m2
Canyon Roadhouse, Fishriver Canyon, Namibia
Compliments of Weather Underground - 1.75 mb